createdAt,value
2018-04-10T00:00:56.074Z,59.38
2018-04-10T00:01:59.478Z,63.35
2018-04-10T00:03:02.852Z,73.18
2018-04-10T00:04:06.282Z,64.70
2018-04-10T00:05:09.789Z,64.10
2018-04-10T00:06:13.159Z,73.32
2018-04-10T00:07:16.513Z,65.37
2018-04-10T00:08:19.975Z,67.72
2018-04-10T00:09:23.325Z,62.67
2018-04-10T00:10:27.073Z,70.35
2018-04-10T00:11:30.412Z,70.37
2018-04-10T00:12:33.732Z,66.28
2018-04-10T00:13:37.088Z,70.15
2018-04-10T00:14:41.821Z,70.97
2018-04-10T00:15:45.104Z,76.97
2018-04-10T00:16:48.474Z,72.30
2018-04-10T00:17:52.050Z,64.60
2018-04-10T00:18:55.562Z,63.72
2018-04-10T00:19:59.827Z,66.75
2018-04-10T00:21:04.069Z,63.30
2018-04-10T00:22:07.441Z,61.70
2018-04-10T00:23:11.638Z,66.50
2018-04-10T00:24:15.023Z,70.53
2018-04-10T00:25:18.393Z,68.80
2018-04-10T00:26:21.847Z,69.68
2018-04-10T00:27:25.195Z,62.95
2018-04-10T00:28:28.531Z,67.18
2018-04-10T00:29:31.846Z,68.97
2018-04-10T00:30:35.387Z,58.53
2018-04-10T00:31:38.834Z,64.03
2018-04-10T00:32:42.215Z,62.97
2018-04-10T00:33:45.570Z,64.47
2018-04-10T00:34:48.979Z,74.03
2018-04-10T00:35:52.359Z,63.85
2018-04-10T00:36:55.776Z,64.20
2018-04-10T00:37:59.462Z,60.42
2018-04-10T00:39:03.347Z,67.45
2018-04-10T00:40:06.736Z,70.20
2018-04-10T00:41:10.097Z,60.92
2018-04-10T00:42:13.458Z,65.30
2018-04-10T00:43:18.588Z,64.55
2018-04-10T00:44:22.054Z,69.45
2018-04-10T00:45:25.470Z,59.00
2018-04-10T00:46:28.871Z,62.42
2018-04-10T00:47:32.290Z,61.40
2018-04-10T00:48:35.837Z,57.50
2018-04-10T00:49:42.381Z,62.08
2018-04-10T00:50:47.294Z,66.15
2018-04-10T00:51:50.753Z,63.20
2018-04-10T00:52:54.104Z,63.60
2018-04-10T00:53:57.427Z,64.68
2018-04-10T00:55:00.767Z,67.50
2018-04-10T00:56:04.661Z,72.07
2018-04-10T00:57:08.033Z,66.47
2018-04-10T00:58:11.358Z,69.30
2018-04-10T00:59:14.710Z,61.42
2018-04-10T01:00:18.102Z,63.40
2018-04-10T01:01:22.040Z,57.20
2018-04-10T01:02:25.656Z,63.75
2018-04-10T01:03:28.964Z,65.18
2018-04-10T01:04:32.331Z,60.58
2018-04-10T01:05:35.673Z,60.03
2018-04-10T01:06:39.739Z,64.47
2018-04-10T01:07:43.075Z,64.75
2018-04-10T01:08:46.478Z,59.97
2018-04-10T01:09:49.827Z,61.70
2018-04-10T01:10:53.228Z,62.20
2018-04-10T01:11:56.643Z,68.68
2018-04-10T01:13:00.002Z,59.30
2018-04-10T01:14:03.390Z,63.42
2018-04-10T01:15:07.094Z,65.60
2018-04-10T01:16:10.482Z,66.22
2018-04-10T01:17:13.887Z,60.22
2018-04-10T01:18:17.276Z,66.10
2018-04-10T01:19:22.146Z,66.07
2018-04-10T01:20:25.538Z,60.92
2018-04-10T01:21:28.955Z,67.43
2018-04-10T01:22:32.375Z,66.05
2018-04-10T01:23:35.693Z,62.88
2018-04-10T01:24:39.108Z,71.07
2018-04-10T01:25:42.450Z,67.62
2018-04-10T01:26:45.792Z,61.30
2018-04-10T01:27:49.147Z,63.45
2018-04-10T01:28:53.233Z,58.38
2018-04-10T01:29:57.379Z,62.22
2018-04-10T01:31:00.704Z,67.07
2018-04-10T01:32:05.120Z,59.50
2018-04-10T01:33:08.427Z,60.65
2018-04-10T01:34:11.852Z,64.28
2018-04-10T01:35:15.205Z,62.42
2018-04-10T01:36:18.550Z,67.12
2018-04-10T01:37:21.882Z,64.80
2018-04-10T01:38:25.311Z,73.15
2018-04-10T01:39:29.329Z,60.78
2018-04-10T01:40:32.701Z,68.22
2018-04-10T01:41:36.118Z,70.25
2018-04-10T01:42:39.594Z,66.53
2018-04-10T01:43:43.174Z,62.33
2018-04-10T01:44:46.569Z,70.65
2018-04-10T01:45:49.888Z,62.20
2018-04-10T01:46:55.812Z,66.70
2018-04-10T01:47:59.789Z,75.47
2018-04-10T01:49:03.945Z,79.57
2018-04-10T01:50:07.315Z,61.95
2018-04-10T01:51:10.741Z,62.75
2018-04-10T01:52:14.778Z,56.70
2018-04-10T01:53:18.268Z,68.15
2018-04-10T01:54:22.315Z,70.25
2018-04-10T01:55:25.694Z,67.40
2018-04-10T01:56:29.119Z,61.20
2018-04-10T01:57:32.471Z,62.72
2018-04-10T01:58:35.816Z,65.70
2018-04-10T01:59:39.128Z,60.85
2018-04-10T02:00:42.483Z,66.32
2018-04-10T02:01:47.379Z,60.72
2018-04-10T02:02:51.566Z,59.58
2018-04-10T02:03:54.875Z,63.00
2018-04-10T02:04:58.307Z,56.88
2018-04-10T02:06:01.710Z,58.20
2018-04-10T02:07:05.089Z,75.45
2018-04-10T02:08:08.439Z,66.82
2018-04-10T02:09:11.750Z,65.37
2018-04-10T02:10:15.138Z,67.62
2018-04-10T02:11:18.518Z,65.82
2018-04-10T02:12:22.538Z,60.33
2018-04-10T02:13:25.888Z,61.70
2018-04-10T02:14:29.207Z,61.63
2018-04-10T02:15:32.546Z,73.75
2018-04-10T02:16:37.609Z,57.15
2018-04-10T02:17:42.908Z,61.85
2018-04-10T02:18:47.021Z,62.72
2018-04-10T02:19:49.646Z,56.70
2018-04-10T02:20:54.314Z,68.03
2018-04-10T02:21:57.747Z,54.53
2018-04-10T02:23:01.562Z,57.53
2018-04-10T02:24:04.947Z,55.53
2018-04-10T02:25:08.412Z,58.92
2018-04-10T02:26:12.054Z,64.05
2018-04-10T02:27:15.427Z,62.05
2018-04-10T02:28:18.774Z,61.15
2018-04-10T02:29:22.111Z,52.42
2018-04-10T02:30:25.900Z,61.92
2018-04-10T02:31:29.299Z,77.70
2018-04-10T02:32:32.645Z,60.40
2018-04-10T02:33:36.010Z,63.60
2018-04-10T02:34:39.384Z,54.83
2018-04-10T02:35:42.728Z,62.20
2018-04-10T02:36:46.884Z,55.25
2018-04-10T02:37:50.243Z,62.35
2018-04-10T02:38:53.540Z,58.60
2018-04-10T02:39:56.843Z,58.33
2018-04-10T02:41:01.583Z,59.00
2018-04-10T02:42:04.995Z,54.08
2018-04-10T02:43:08.979Z,58.35
2018-04-10T02:44:12.388Z,59.10
2018-04-10T02:45:15.793Z,59.63
2018-04-10T02:46:19.151Z,61.95
2018-04-10T02:47:22.556Z,68.43
2018-04-10T02:48:25.933Z,61.17
2018-04-10T02:49:29.512Z,57.80
2018-04-10T02:50:32.891Z,55.80
2018-04-10T02:51:36.245Z,64.40
2018-04-10T02:52:40.427Z,65.10
2018-04-10T02:53:48.834Z,61.65
2018-04-10T02:54:52.913Z,64.18
2018-04-10T02:55:56.304Z,60.08
2018-04-10T02:56:59.687Z,65.22
2018-04-10T02:58:03.072Z,67.57
2018-04-10T02:59:06.620Z,57.88
2018-04-10T03:00:09.944Z,54.60
2018-04-10T03:01:14.582Z,54.17
2018-04-10T03:02:17.964Z,61.28
2018-04-10T03:03:21.308Z,63.20
2018-04-10T03:04:24.653Z,59.95
2018-04-10T03:05:27.990Z,57.85
2018-04-10T03:06:31.306Z,66.68
2018-04-10T03:07:34.644Z,60.33
2018-04-10T03:08:37.977Z,59.85
2018-04-10T03:09:41.398Z,67.80
2018-04-10T03:10:44.719Z,71.43
2018-04-10T03:11:48.322Z,57.45
2018-04-10T03:12:52.506Z,68.22
2018-04-10T03:13:55.868Z,61.78
2018-04-10T03:14:59.290Z,57.25
2018-04-10T03:16:02.648Z,58.47
2018-04-10T03:17:05.987Z,65.20
2018-04-10T03:18:10.128Z,61.78
2018-04-10T03:19:13.573Z,61.37
2018-04-10T03:20:16.990Z,56.40
2018-04-10T03:21:21.115Z,61.13
2018-04-10T03:22:24.567Z,63.20
2018-04-10T03:23:27.859Z,57.50
2018-04-10T03:24:31.235Z,65.50
2018-04-10T03:25:34.641Z,62.75
2018-04-10T03:26:37.982Z,67.18
2018-04-10T03:27:41.450Z,65.12
2018-04-10T03:28:45.026Z,62.53
2018-04-10T03:29:48.382Z,58.50
2018-04-10T03:30:51.721Z,65.95
2018-04-10T03:31:55.150Z,58.50
2018-04-10T03:32:58.503Z,68.60
2018-04-10T03:34:02.813Z,66.07
2018-04-10T03:35:06.275Z,59.13
2018-04-10T03:36:09.635Z,63.42
2018-04-10T03:37:13.787Z,60.92
2018-04-10T03:38:17.168Z,58.53
2018-04-10T03:39:20.573Z,55.92
2018-04-10T03:40:23.950Z,67.40
2018-04-10T03:41:30.271Z,59.08
2018-04-10T03:42:33.632Z,60.67
2018-04-10T03:43:37.271Z,54.17
2018-04-10T03:44:40.660Z,57.17
2018-04-10T03:45:43.950Z,57.92
2018-04-10T03:46:47.301Z,61.20
2018-04-10T03:47:50.758Z,54.72
2018-04-10T03:48:54.034Z,55.53
2018-04-10T03:49:57.414Z,56.30
2018-04-10T03:51:00.728Z,60.80
2018-04-10T03:52:04.163Z,54.55
2018-04-10T03:53:07.550Z,53.00
2018-04-10T03:54:10.862Z,55.67
2018-04-10T03:55:14.177Z,54.80
2018-04-10T03:56:17.505Z,52.62
2018-04-10T03:57:20.919Z,49.70
2018-04-10T03:58:24.752Z,61.45
2018-04-10T03:59:28.123Z,61.92
2018-04-10T04:00:31.459Z,57.20
2018-04-10T04:01:35.590Z,66.05
2018-04-10T04:02:38.947Z,58.63
2018-04-10T04:03:42.266Z,56.88
2018-04-10T04:04:45.786Z,50.00
2018-04-10T04:05:49.109Z,61.03
2018-04-10T04:06:52.468Z,54.42
2018-04-10T04:07:55.902Z,62.22
2018-04-10T04:08:59.275Z,51.17
2018-04-10T04:10:02.697Z,52.88
2018-04-10T04:11:06.037Z,53.00
2018-04-10T04:12:09.640Z,56.63
2018-04-10T04:13:13.023Z,50.83
2018-04-10T04:14:16.407Z,58.25
2018-04-10T04:15:19.740Z,55.97
2018-04-10T04:16:34.752Z,60.12
2018-04-10T04:17:38.073Z,53.67
2018-04-10T04:18:53.227Z,59.38
2018-04-10T04:20:08.414Z,50.28
2018-04-10T04:21:23.669Z,49.85
2018-04-10T04:22:38.950Z,60.10
2018-04-10T04:23:42.472Z,53.47
2018-04-10T04:24:46.094Z,66.53
2018-04-10T04:25:49.486Z,58.83
2018-04-10T04:26:52.863Z,56.88
2018-04-10T04:27:56.269Z,56.90
2018-04-10T04:28:59.587Z,58.00
2018-04-10T04:30:02.999Z,55.45
2018-04-10T04:31:09.167Z,52.90
2018-04-10T04:32:13.281Z,51.17
2018-04-10T04:33:17.516Z,54.72
2018-04-10T04:34:20.988Z,54.47
2018-04-10T04:35:24.627Z,54.72
2018-04-10T04:36:27.979Z,60.58
2018-04-10T04:37:34.335Z,50.67
2018-04-10T04:38:37.687Z,55.83
2018-04-10T04:39:41.473Z,53.33
2018-04-10T04:40:45.692Z,51.33
2018-04-10T04:41:49.269Z,53.15
2018-04-10T04:42:52.681Z,63.28
2018-04-10T04:43:57.826Z,52.85
2018-04-10T04:45:01.826Z,55.50
2018-04-10T04:46:07.947Z,58.33
2018-04-10T04:47:12.444Z,53.63
2018-04-10T04:48:15.877Z,49.75
2018-04-10T04:49:20.177Z,51.20
2018-04-10T04:50:24.553Z,56.75
2018-04-10T04:51:27.934Z,51.10
2018-04-10T04:52:31.324Z,54.40
2018-04-10T04:53:35.025Z,52.28
2018-04-10T04:54:38.510Z,51.08
2018-04-10T04:55:41.825Z,56.50
2018-04-10T04:56:45.309Z,48.45
2018-04-10T04:57:48.672Z,50.67
2018-04-10T04:58:52.031Z,47.80
2018-04-10T04:59:55.539Z,52.08
2018-04-10T05:00:59.798Z,56.47
2018-04-10T05:02:03.285Z,54.97
2018-04-10T05:03:07.150Z,56.88
2018-04-10T05:04:12.105Z,45.22
2018-04-10T05:05:16.288Z,55.78
2018-04-10T05:06:19.753Z,55.53
2018-04-10T05:07:23.585Z,49.10
2018-04-10T05:08:28.047Z,55.63
2018-04-10T05:09:31.454Z,45.90
2018-04-10T05:10:34.783Z,49.97
2018-04-10T05:11:38.691Z,48.72
2018-04-10T05:12:42.139Z,70.82
2018-04-10T05:13:45.502Z,49.78
2018-04-10T05:14:48.850Z,51.90
2018-04-10T05:15:52.231Z,52.80
2018-04-10T05:16:55.608Z,56.97
2018-04-10T05:18:00.669Z,70.82
2018-04-10T05:19:07.039Z,55.97
2018-04-10T05:20:10.394Z,59.53
2018-04-10T05:21:13.710Z,46.78
2018-04-10T05:22:17.086Z,46.80
2018-04-10T05:23:20.514Z,52.05
2018-04-10T05:24:24.122Z,49.78
2018-04-10T05:25:27.524Z,45.35
2018-04-10T05:26:30.908Z,50.15
2018-04-10T05:27:34.399Z,46.33
2018-04-10T05:28:38.183Z,45.75
2018-04-10T05:29:41.485Z,44.97
2018-04-10T05:30:45.494Z,50.60
2018-04-10T05:31:49.598Z,52.53
2018-04-10T05:32:53.833Z,52.05
2018-04-10T05:33:57.542Z,53.45
2018-04-10T05:35:00.919Z,55.28
2018-04-10T05:36:04.355Z,47.67
2018-04-10T05:37:07.696Z,49.47
2018-04-10T05:38:11.239Z,48.17
2018-04-10T05:39:14.614Z,59.72
2018-04-10T05:40:18.409Z,44.72
2018-04-10T05:41:21.830Z,48.78
2018-04-10T05:42:25.425Z,49.88
2018-04-10T05:43:28.770Z,45.97
2018-04-10T05:44:33.048Z,40.15
2018-04-10T05:45:36.892Z,44.38
2018-04-10T05:46:40.260Z,49.53
2018-04-10T05:47:43.586Z,49.92
2018-04-10T05:48:47.188Z,44.28
2018-04-10T05:49:50.821Z,46.50
2018-04-10T05:50:54.217Z,44.25
2018-04-10T05:51:57.796Z,45.05
2018-04-10T05:53:03.481Z,43.65
2018-04-10T05:54:07.719Z,47.28
2018-04-10T05:55:11.072Z,44.20
2018-04-10T05:56:15.306Z,43.20
2018-04-10T05:57:18.631Z,48.95
2018-04-10T05:58:22.832Z,51.75
2018-04-10T05:59:26.183Z,46.70
2018-04-10T06:00:30.421Z,47.67
2018-04-10T06:01:35.810Z,43.05
2018-04-10T06:02:39.761Z,50.47
2018-04-10T06:03:43.285Z,46.72
2018-04-10T06:04:47.376Z,48.83
2018-04-10T06:05:50.896Z,45.03
2018-04-10T06:06:54.411Z,44.95
2018-04-10T06:07:57.722Z,45.58
2018-04-10T06:09:01.382Z,52.17
2018-04-10T06:10:04.958Z,40.50
2018-04-10T06:11:08.391Z,44.15
2018-04-10T06:12:12.275Z,49.03
2018-04-10T06:13:15.959Z,47.90
2018-04-10T06:14:19.345Z,41.85
2018-04-10T06:15:22.755Z,46.15
2018-04-10T06:16:26.235Z,44.88
2018-04-10T06:17:29.836Z,46.58
2018-04-10T06:18:33.676Z,49.75
2018-04-10T06:19:37.258Z,41.50
2018-04-10T06:20:40.655Z,44.97
2018-04-10T06:21:44.062Z,47.62
2018-04-10T06:22:47.533Z,50.03
2018-04-10T06:23:50.865Z,44.70
2018-04-10T06:24:54.178Z,47.88
2018-04-10T06:25:57.544Z,45.38
2018-04-10T06:27:01.035Z,45.72
2018-04-10T06:28:05.199Z,41.13
2018-04-10T06:29:08.531Z,52.20
2018-04-10T06:30:11.962Z,44.67
2018-04-10T06:31:16.816Z,46.20
2018-04-10T06:32:25.034Z,43.05
2018-04-10T06:33:29.359Z,37.05
2018-04-10T06:34:32.724Z,47.45
2018-04-10T06:35:37.775Z,47.60
2018-04-10T06:36:41.442Z,47.85
2018-04-10T06:37:44.760Z,39.60
2018-04-10T06:38:48.446Z,39.53
2018-04-10T06:39:52.504Z,42.70
2018-04-10T06:40:55.895Z,40.00
2018-04-10T06:41:59.244Z,42.65
2018-04-10T06:43:02.666Z,44.25
2018-04-10T06:44:05.980Z,42.80
2018-04-10T06:45:09.278Z,42.13
2018-04-10T06:46:12.821Z,38.33
2018-04-10T06:47:16.200Z,43.65
2018-04-10T06:48:20.224Z,33.17
2018-04-10T06:49:23.816Z,44.47
2018-04-10T06:50:27.386Z,36.90
2018-04-10T06:51:31.081Z,37.30
2018-04-10T06:52:34.597Z,47.45
2018-04-10T06:53:40.600Z,48.45
2018-04-10T06:54:43.912Z,38.85
2018-04-10T06:55:47.484Z,36.40
2018-04-10T06:56:50.987Z,47.28
2018-04-10T06:57:54.337Z,35.25
2018-04-10T06:59:00.108Z,37.03
2018-04-10T07:00:06.535Z,42.50
2018-04-10T07:01:10.309Z,41.25
2018-04-10T07:02:13.640Z,37.63
2018-04-10T07:03:17.009Z,35.10
2018-04-10T07:04:21.060Z,31.52
2018-04-10T07:05:24.405Z,36.33
2018-04-10T07:06:27.940Z,39.63
2018-04-10T07:07:31.264Z,32.65
2018-04-10T07:08:35.560Z,36.03
2018-04-10T07:09:40.124Z,38.95
2018-04-10T07:10:43.479Z,37.13
2018-04-10T07:11:46.826Z,43.40
2018-04-10T07:12:50.196Z,29.37
2018-04-10T07:13:53.946Z,37.38
2018-04-10T07:14:57.309Z,37.17
2018-04-10T07:16:00.638Z,29.20
2018-04-10T07:17:05.079Z,33.92
2018-04-10T07:18:09.485Z,28.12
2018-04-10T07:19:12.939Z,27.98
2018-04-10T07:20:16.389Z,31.17
2018-04-10T07:21:19.723Z,29.90
2018-04-10T07:22:23.189Z,28.10
2018-04-10T07:23:26.610Z,30.55
2018-04-10T07:24:30.063Z,30.35
2018-04-10T07:25:33.474Z,29.75
2018-04-10T07:26:36.862Z,27.80
2018-04-10T07:27:41.891Z,28.42
2018-04-10T07:28:47.798Z,34.72
2018-04-10T07:29:51.206Z,37.28
2018-04-10T07:30:55.040Z,26.37
2018-04-10T07:32:01.442Z,32.25
2018-04-10T07:33:06.162Z,25.70
2018-04-10T07:34:09.691Z,27.50
2018-04-10T07:35:13.330Z,29.08
2018-04-10T07:36:16.690Z,31.27
2018-04-10T07:37:20.056Z,30.40
2018-04-10T07:38:23.405Z,25.95
2018-04-10T07:39:27.510Z,33.33
2018-04-10T07:40:32.104Z,29.67
2018-04-10T07:41:35.467Z,24.45
2018-04-10T07:42:38.794Z,24.95
2018-04-10T07:43:42.150Z,26.62
2018-04-10T07:44:45.470Z,28.10
2018-04-10T07:45:48.948Z,25.37
2018-04-10T07:46:52.338Z,26.08
2018-04-10T07:47:55.731Z,28.40
2018-04-10T07:48:59.790Z,26.42
2018-04-10T07:50:04.337Z,28.98
2018-04-10T07:51:08.450Z,25.45
2018-04-10T07:52:11.903Z,23.27
2018-04-10T07:53:15.245Z,21.40
2018-04-10T07:54:20.397Z,23.90
2018-04-10T07:55:24.791Z,28.15
2018-04-10T07:56:28.265Z,22.08
2018-04-10T07:57:31.647Z,20.23
2018-04-10T07:58:35.245Z,26.65
2018-04-10T07:59:38.561Z,19.42
2018-04-10T08:00:41.948Z,31.48
2018-04-10T08:01:45.265Z,19.95
2018-04-10T08:02:48.631Z,19.45
2018-04-10T08:03:53.306Z,21.95
2018-04-10T08:04:56.642Z,23.70
2018-04-10T08:05:59.989Z,19.85
2018-04-10T08:07:03.931Z,27.60
2018-04-10T08:08:11.502Z,24.08
2018-04-10T08:09:28.504Z,21.67
2018-04-10T08:10:33.635Z,19.67
2018-04-10T08:11:45.146Z,23.50
2018-04-10T08:12:50.211Z,23.92
2018-04-10T08:13:57.984Z,26.25
2018-04-10T08:15:11.055Z,19.75
2018-04-10T08:16:20.697Z,28.55
2018-04-10T08:17:27.092Z,24.42
2018-04-10T08:18:32.134Z,33.78
2018-04-10T08:19:35.512Z,21.92
2018-04-10T08:20:40.500Z,23.40
2018-04-10T08:21:44.862Z,19.85
2018-04-10T08:22:49.595Z,20.30
2018-04-10T08:23:53.297Z,19.35
2018-04-10T08:24:58.018Z,17.60
2018-04-10T08:26:03.423Z,21.90
2018-04-10T08:27:07.376Z,20.83
2018-04-10T08:28:17.263Z,23.02
2018-04-10T08:29:22.357Z,20.80
2018-04-10T08:30:26.625Z,13.95
2018-04-10T08:31:30.694Z,18.90
2018-04-10T08:32:34.374Z,27.90
2018-04-10T08:33:38.398Z,20.52
2018-04-10T08:34:43.041Z,21.58
2018-04-10T08:35:49.058Z,21.42
2018-04-10T08:36:53.652Z,22.70
2018-04-10T08:37:58.094Z,25.42
2018-04-10T08:39:06.689Z,21.95
2018-04-10T08:40:10.050Z,20.48
2018-04-10T08:41:21.690Z,17.50
2018-04-10T08:42:28.004Z,18.40
2018-04-10T08:43:31.825Z,13.32
2018-04-10T08:44:35.152Z,21.40
2018-04-10T08:45:38.498Z,20.00
2018-04-10T08:46:46.064Z,17.70
2018-04-10T08:47:52.658Z,16.65
2018-04-10T08:48:59.705Z,21.02
2018-04-10T08:50:08.311Z,21.12
2018-04-10T08:51:11.695Z,17.00
2018-04-10T08:52:15.291Z,14.30
2018-04-10T08:53:18.610Z,19.55
2018-04-10T08:54:21.942Z,16.65
2018-04-10T08:55:27.822Z,24.10
2018-04-10T08:56:31.927Z,29.70
2018-04-10T08:57:35.368Z,15.13
2018-04-10T08:58:40.703Z,13.32
2018-04-10T08:59:44.545Z,16.12
2018-04-10T09:00:49.764Z,15.52
2018-04-10T09:01:54.030Z,14.35
2018-04-10T09:02:57.414Z,13.70
2018-04-10T09:04:05.015Z,16.62
2018-04-10T09:05:09.123Z,16.50
2018-04-10T09:06:13.247Z,17.23
2018-04-10T09:07:17.432Z,11.05
2018-04-10T09:08:25.058Z,16.60
2018-04-10T09:09:28.390Z,15.15
2018-04-10T09:10:31.799Z,19.00
2018-04-10T09:11:37.653Z,16.65
2018-04-10T09:12:42.821Z,19.08
2018-04-10T09:13:46.147Z,17.00
2018-04-10T09:14:49.556Z,18.25
2018-04-10T09:15:53.688Z,20.10
2018-04-10T09:16:58.020Z,28.65
2018-04-10T09:18:01.335Z,13.85
2018-04-10T09:19:05.628Z,19.92
2018-04-10T09:20:09.184Z,15.57
2018-04-10T09:21:15.184Z,22.08
2018-04-10T09:22:18.615Z,11.60
2018-04-10T09:23:21.945Z,10.50
2018-04-10T09:24:26.019Z,9.20
2018-04-10T09:25:29.410Z,11.82
2018-04-10T09:26:32.792Z,10.70
2018-04-10T09:27:36.129Z,12.88
2018-04-10T09:28:39.443Z,12.95
2018-04-10T09:29:42.827Z,14.85
2018-04-10T09:30:46.163Z,16.50
2018-04-10T09:31:49.614Z,11.32
2018-04-10T09:32:52.911Z,10.80
2018-04-10T09:33:56.610Z,9.95
2018-04-10T09:35:00.095Z,9.98
2018-04-10T09:36:04.821Z,12.85
2018-04-10T09:37:08.140Z,12.32
2018-04-10T09:38:11.442Z,12.50
2018-04-10T09:39:14.786Z,8.38
2018-04-10T09:40:18.153Z,12.37
2018-04-10T09:41:21.504Z,11.38
2018-04-10T09:42:24.902Z,14.43
2018-04-10T09:43:28.222Z,10.95
2018-04-10T09:44:31.601Z,11.63
2018-04-10T09:45:34.981Z,13.60
2018-04-10T09:46:38.324Z,11.75
2018-04-10T09:47:41.653Z,17.30
2018-04-10T09:48:45.005Z,17.12
2018-04-10T09:49:48.314Z,19.12
2018-04-10T09:50:51.695Z,13.77
2018-04-10T09:51:55.029Z,12.60
2018-04-10T09:52:58.462Z,13.40
2018-04-10T09:54:01.767Z,13.35
2018-04-10T09:55:05.410Z,20.85
2018-04-10T09:56:08.781Z,11.98
2018-04-10T09:57:12.176Z,17.27
2018-04-10T09:58:15.498Z,23.87
2018-04-10T09:59:18.851Z,36.33
2018-04-10T10:00:28.564Z,21.17
2018-04-10T10:01:31.878Z,23.20
2018-04-10T10:02:35.680Z,13.07
2018-04-10T10:03:38.999Z,16.20
2018-04-10T10:04:43.221Z,20.23
2018-04-10T10:05:46.618Z,13.00
2018-04-10T10:06:51.423Z,16.02
2018-04-10T10:07:54.810Z,13.60
2018-04-10T10:08:58.151Z,17.73
2018-04-10T10:10:01.535Z,18.15
2018-04-10T10:11:04.935Z,15.63
2018-04-10T10:12:08.309Z,16.83
2018-04-10T10:13:11.654Z,20.52
2018-04-10T10:14:15.027Z,13.43
2018-04-10T10:15:18.434Z,12.73
2018-04-10T10:16:21.811Z,11.25
2018-04-10T10:17:25.170Z,12.88
2018-04-10T10:18:28.507Z,14.35
2018-04-10T10:19:31.908Z,9.13
2018-04-10T10:20:35.285Z,9.15
2018-04-10T10:21:38.606Z,10.32
2018-04-10T10:22:41.964Z,11.52
2018-04-10T10:23:46.065Z,10.48
2018-04-10T10:24:49.396Z,15.00
2018-04-10T10:25:52.778Z,14.52
2018-04-10T10:26:56.121Z,9.82
2018-04-10T10:27:59.511Z,10.35
2018-04-10T10:29:03.288Z,13.20
2018-04-10T10:30:06.641Z,11.80
2018-04-10T10:31:10.066Z,11.57
2018-04-10T10:32:13.379Z,10.25
2018-04-10T10:33:16.760Z,10.95
2018-04-10T10:34:20.087Z,10.45
2018-04-10T10:35:23.427Z,13.20
2018-04-10T10:36:26.772Z,12.05
2018-04-10T10:37:30.136Z,10.70
2018-04-10T10:38:33.490Z,14.73
2018-04-10T10:39:36.832Z,13.00
2018-04-10T10:40:40.190Z,14.90
2018-04-10T10:41:43.550Z,12.95
2018-04-10T10:42:46.928Z,12.45
2018-04-10T10:43:50.294Z,18.08
2018-04-10T10:44:53.644Z,15.95
2018-04-10T10:45:57.000Z,15.82
2018-04-10T10:47:00.313Z,13.68
2018-04-10T10:48:03.777Z,8.48
2018-04-10T10:49:07.342Z,13.48
2018-04-10T10:50:10.999Z,12.88
2018-04-10T10:51:15.077Z,17.30
2018-04-10T10:52:18.415Z,11.50
2018-04-10T10:53:21.878Z,8.98
2018-04-10T10:54:25.226Z,12.50
2018-04-10T10:55:28.602Z,16.37
2018-04-10T10:56:31.916Z,9.93
2018-04-10T10:57:35.278Z,12.18
2018-04-10T10:58:38.578Z,13.18
2018-04-10T10:59:41.943Z,11.45
2018-04-10T11:00:45.320Z,18.90
2018-04-10T11:01:48.678Z,9.90
2018-04-10T11:02:52.014Z,14.30
2018-04-10T11:03:55.365Z,11.63
2018-04-10T11:04:58.726Z,12.60
2018-04-10T11:06:02.226Z,10.38
2018-04-10T11:07:05.561Z,10.23
2018-04-10T11:08:08.879Z,14.65
2018-04-10T11:09:12.267Z,12.57
2018-04-10T11:10:15.678Z,10.88
2018-04-10T11:11:19.055Z,7.72
2018-04-10T11:12:22.423Z,16.30
2018-04-10T11:13:25.851Z,16.55
2018-04-10T11:14:29.215Z,9.88
2018-04-10T11:15:32.607Z,9.18
2018-04-10T11:16:35.922Z,17.73
2018-04-10T11:17:39.291Z,11.43
2018-04-10T11:18:42.635Z,12.07
2018-04-10T11:19:46.213Z,10.35
2018-04-10T11:20:49.712Z,10.77
2018-04-10T11:21:53.070Z,12.30
2018-04-10T11:22:56.502Z,11.77
2018-04-10T11:23:59.854Z,11.88
2018-04-10T11:25:03.202Z,12.43
2018-04-10T11:26:06.814Z,10.82
2018-04-10T11:27:10.170Z,10.30
2018-04-10T11:28:13.514Z,10.60
2018-04-10T11:29:16.875Z,12.88
2018-04-10T11:30:20.262Z,17.40
2018-04-10T11:31:23.612Z,8.52
2018-04-10T11:32:27.025Z,13.27
2018-04-10T11:33:30.396Z,13.38
2018-04-10T11:34:33.943Z,14.87
2018-04-10T11:35:37.275Z,15.77
2018-04-10T11:36:40.728Z,17.42
2018-04-10T11:37:44.031Z,11.55
2018-04-10T11:38:47.354Z,9.70
2018-04-10T11:39:50.709Z,11.40
2018-04-10T11:40:54.036Z,17.50
2018-04-10T11:41:57.379Z,11.85
2018-04-10T11:43:00.710Z,11.20
2018-04-10T11:44:04.111Z,8.88
2018-04-10T11:45:07.474Z,11.05
2018-04-10T11:46:10.815Z,10.65
2018-04-10T11:47:14.195Z,13.25
2018-04-10T11:48:17.517Z,13.32
2018-04-10T11:49:20.857Z,11.57
2018-04-10T11:50:24.193Z,10.52
2018-04-10T11:51:27.516Z,10.30
2018-04-10T11:52:30.925Z,9.63
2018-04-10T11:53:34.299Z,9.43
2018-04-10T11:54:37.652Z,19.70
2018-04-10T11:55:40.982Z,14.02
2018-04-10T11:56:44.323Z,10.55
2018-04-10T11:57:47.692Z,11.15
2018-04-10T11:58:51.029Z,9.65
2018-04-10T11:59:54.327Z,8.13
2018-04-10T12:00:57.667Z,10.60
2018-04-10T12:02:01.045Z,9.80
2018-04-10T12:03:04.379Z,13.32
2018-04-10T12:04:07.738Z,8.82
2018-04-10T12:05:11.102Z,13.73
2018-04-10T12:06:14.421Z,7.82
2018-04-10T12:07:17.760Z,8.65
2018-04-10T12:08:21.153Z,10.75
2018-04-10T12:09:24.496Z,8.88
2018-04-10T12:10:27.938Z,13.10
2018-04-10T12:11:31.274Z,10.88
2018-04-10T12:12:34.742Z,10.52
2018-04-10T12:13:38.076Z,9.75
2018-04-10T12:14:41.468Z,11.90
2018-04-10T12:15:45.186Z,9.10
2018-04-10T12:16:48.510Z,17.50
2018-04-10T12:17:51.893Z,12.63
2018-04-10T12:18:55.350Z,10.18
2018-04-10T12:19:58.688Z,10.55
2018-04-10T12:21:02.062Z,16.75
2018-04-10T12:22:05.400Z,8.43
2018-04-10T12:23:08.738Z,8.40
2018-04-10T12:24:12.210Z,9.30
2018-04-10T12:25:15.545Z,8.73
2018-04-10T12:26:18.950Z,11.90
2018-04-10T12:27:22.379Z,8.27
2018-04-10T12:28:25.720Z,10.60
2018-04-10T12:29:29.218Z,9.00
2018-04-10T12:30:32.720Z,7.70
2018-04-10T12:31:36.060Z,7.62
2018-04-10T12:32:39.906Z,10.15
2018-04-10T12:33:43.294Z,12.95
2018-04-10T12:34:46.644Z,13.68
2018-04-10T12:35:49.992Z,10.95
2018-04-10T12:36:53.331Z,13.13
2018-04-10T12:37:56.691Z,7.45
2018-04-10T12:39:00.024Z,8.70
2018-04-10T12:40:03.382Z,9.52
2018-04-10T12:41:06.731Z,9.43
2018-04-10T12:42:10.145Z,9.55
2018-04-10T12:43:13.464Z,8.38
2018-04-10T12:44:16.802Z,12.63
2018-04-10T12:45:20.210Z,10.57
2018-04-10T12:46:23.575Z,25.80
2018-04-10T12:47:26.936Z,10.00
2018-04-10T12:48:30.253Z,11.80
2018-04-10T12:49:33.606Z,8.60
2018-04-10T12:50:36.968Z,9.68
2018-04-10T12:51:40.298Z,11.63
2018-04-10T12:52:43.651Z,18.50
2018-04-10T12:53:46.955Z,7.47
2018-04-10T12:54:50.340Z,8.05
2018-04-10T12:55:53.993Z,7.22
2018-04-10T12:56:57.314Z,10.57
2018-04-10T12:58:00.639Z,7.35
2018-04-10T12:59:04.071Z,6.60
2018-04-10T13:00:07.415Z,9.13
2018-04-10T13:01:10.770Z,37.75
2018-04-10T13:02:14.171Z,12.63
2018-04-10T13:03:18.539Z,6.62
2018-04-10T13:04:21.961Z,10.98
2018-04-10T13:05:25.308Z,10.35
2018-04-10T13:06:28.663Z,7.95
2018-04-10T13:07:32.047Z,8.55
2018-04-10T13:08:37.052Z,7.05
2018-04-10T13:09:40.378Z,9.50
2018-04-10T13:10:43.963Z,12.15
2018-04-10T13:11:47.827Z,8.98
2018-04-10T13:12:51.266Z,9.30
2018-04-10T13:13:54.674Z,10.88
2018-04-10T13:14:58.036Z,8.27
2018-04-10T13:16:01.492Z,7.65
2018-04-10T13:17:04.851Z,10.00
2018-04-10T13:18:08.229Z,10.82
2018-04-10T13:19:13.443Z,7.62
2018-04-10T13:20:16.764Z,8.20
2018-04-10T13:21:20.141Z,10.18
2018-04-10T13:22:23.510Z,7.20
2018-04-10T13:23:31.411Z,7.55
2018-04-10T13:24:34.789Z,7.55
2018-04-10T13:25:39.533Z,9.27
2018-04-10T13:26:42.914Z,8.60
2018-04-10T13:27:46.237Z,11.73
2018-04-10T13:28:50.494Z,11.15
2018-04-10T13:29:53.843Z,10.15
2018-04-10T13:30:57.540Z,9.98
2018-04-10T13:32:01.253Z,7.83
2018-04-10T13:33:04.594Z,8.43
2018-04-10T13:34:07.951Z,8.80
2018-04-10T13:35:11.322Z,5.87
2018-04-10T13:36:15.177Z,10.73
2018-04-10T13:37:18.516Z,8.55
2018-04-10T13:38:22.112Z,6.95
2018-04-10T13:39:26.367Z,6.40
2018-04-10T13:40:29.700Z,10.30
2018-04-10T13:41:35.284Z,8.23
2018-04-10T13:42:40.349Z,9.93
2018-04-10T13:43:43.715Z,6.53
2018-04-10T13:44:49.323Z,8.57
2018-04-10T13:45:52.672Z,11.18